»·PEaware :: N9536D KAJO-KOXR

N9536D :: KAJO-KOXR

FLIGHT INFORMATION

Flight Status: Arrived
Operator: Privately registered:
United States
More flights under this callsign
Pilot: Bradley G. (33369)
Aircraft: CESSNA 172 SKYHAWK
(C172)
More flights by this aircraft type
Origin: KAJO Corona Mun
United States
Destination: KOXR Oxnard
United States
More flights between these airports :: More routes between these airports
Route: SLI, VPLVT, LAX COASTAL ROUTE, VNY, CMA
File this flight plan on PilotEdge
Remarks:
Altitude:
(Current/Filed)
6,500ft
Speed:
(Current/Filed)
180kts
Departed: 22-Jan-21 08:36 PM
Arrived: 22-Jan-21 09:16 PM
Distance/Time
Traveled:
82nm/0:39
Distance/Time
To Go:
Arrived

Flight Plot

Page will automatically refresh every two minutes.

Flight plan parsing failed; only flown route is shown


Map Options




Map Legend


Flown Route
Filed Route
Departure Airport
Arrival Airport
Navaid (VOR, NDB)
Fix

Horizontal Profiles

Position Reports

Time Latitude Longitude Heading Altitude Ground
Speed
22-Jan-21 20:26 33.897731 -117.598300 269 517ft 0kts
22-Jan-21 20:27 33.897731 -117.598299 269 534ft 0kts
22-Jan-21 20:28 33.897246 -117.598294 91 534ft 0kts
22-Jan-21 20:29 33.897246 -117.598294 91 534ft 0kts
22-Jan-21 20:30 33.897246 -117.598294 91 534ft 0kts
22-Jan-21 20:31 33.897246 -117.598294 91 534ft 0kts
22-Jan-21 20:32 33.897246 -117.598294 91 534ft 0kts
22-Jan-21 20:33 33.897266 -117.597900 84 535ft 0kts
22-Jan-21 20:34 33.897719 -117.598127 265 535ft 15kts
22-Jan-21 20:35 33.893872 -117.625402 253 1423ft 108kts
22-Jan-21 20:36 33.888026 -117.621261 354 2940ft 99kts
22-Jan-21 20:37 33.885603 -117.622170 19 4119ft 102kts
22-Jan-21 20:38 33.901586 -117.653264 279 4589ft 154kts
22-Jan-21 20:39 33.893990 -117.707814 246 4503ft 174kts
22-Jan-21 20:40 33.874565 -117.760811 246 4506ft 173kts
22-Jan-21 20:41 33.857969 -117.805926 246 4465ft 167kts
22-Jan-21 20:42 33.845133 -117.851109 251 4466ft 163kts
22-Jan-21 20:43 33.833443 -117.890329 250 4468ft 164kts
22-Jan-21 20:44 33.817642 -117.942978 250 4469ft 169kts
22-Jan-21 20:45 33.801628 -117.996244 250 4468ft 169kts
22-Jan-21 20:46 33.785150 -118.048590 246 4469ft 169kts
22-Jan-21 20:47 33.766188 -118.100251 246 4467ft 169kts
22-Jan-21 20:48 33.748541 -118.148175 246 5434ft 123kts
22-Jan-21 20:49 33.735518 -118.183172 246 6474ft 138kts
22-Jan-21 20:50 33.717840 -118.230043 239 6459ft 163kts
22-Jan-21 20:51 33.744135 -118.243480 5 6386ft 169kts
22-Jan-21 20:52 33.785958 -118.261088 322 6391ft 169kts
22-Jan-21 20:53 33.819339 -118.300581 314 6465ft 171kts
22-Jan-21 20:54 33.854020 -118.340645 316 6468ft 174kts
22-Jan-21 20:55 33.889350 -118.380807 316 6469ft 174kts
22-Jan-21 20:56 33.926330 -118.418567 319 6468ft 174kts
22-Jan-21 20:57 33.966692 -118.450513 337 6468ft 175kts
22-Jan-21 20:58 34.011414 -118.473685 334 6468ft 175kts
22-Jan-21 20:59 34.054667 -118.498053 334 6468ft 175kts
22-Jan-21 21:00 34.097989 -118.524276 333 6509ft 174kts
22-Jan-21 21:01 34.141027 -118.551673 309 6500ft 174kts
22-Jan-21 21:02 34.143506 -118.606276 258 6508ft 170kts
22-Jan-21 21:03 34.147438 -118.663329 281 6504ft 172kts
22-Jan-21 21:04 34.156615 -118.719641 280 6507ft 172kts
22-Jan-21 21:05 34.165451 -118.775273 280 6506ft 166kts
22-Jan-21 21:06 34.174133 -118.830163 280 6487ft 166kts
22-Jan-21 21:07 34.182768 -118.884975 280 6487ft 165kts
22-Jan-21 21:08 34.187714 -118.940094 273 6485ft 163kts
22-Jan-21 21:09 34.190593 -118.992468 273 6487ft 144kts
22-Jan-21 21:10 34.194064 -119.038372 285 5852ft 142kts
22-Jan-21 21:11 34.199023 -119.084580 273 3861ft 137kts
22-Jan-21 21:12 34.200061 -119.129584 266 1903ft 131kts
22-Jan-21 21:13 34.200246 -119.170581 270 614ft 113kts
22-Jan-21 21:14 34.200794 -119.204625 269 48ft 68kts
22-Jan-21 21:15 34.200030 -119.206870 126 47ft 0kts
22-Jan-21 21:16 34.200030 -119.206870 126 47ft 0kts
22-Jan-21 21:17 34.199762 -119.202724 105 46ft 8kts
22-Jan-21 21:18 34.198650 -119.202238 276 45ft 5kts
22-Jan-21 21:19 34.198680 -119.202654 267 45ft 0kts

Navigation Log

Ident Type
Flight plan parsing failed, navigation log unavailable